Time;durP1;ratioP1;P1;durP2;ratioP2;P2;SDS_P1;SDS_P2;PMS_P1;PMS_P2;Temp;Humidity;BMP_temperature;BMP_pressure;BME280_temperature;BME280_humidity;BME280_pressure;Samples;Min_cycle;Max_cycle;Signal;HPM_P1;HPM_P2
2021/06/18 00:02:01;;;;;;;10.77;7.68;;;20.80;99.90;;;19.92;71.63;101277.44;5005582;28;20017;-70
2021/06/18 00:04:27;;;;;;;11.48;7.90;;;20.70;99.90;;;19.77;72.11;101277.63;5023149;28;20040;-70
2021/06/18 00:06:53;;;;;;;13.50;8.40;;;20.80;99.90;;;19.92;71.18;101269.41;5036184;28;20033;-70
2021/06/18 00:09:19;;;;;;;11.70;7.82;;;20.80;99.90;;;20.00;70.92;101269.66;5019854;28;20481;-70
2021/06/18 00:11:45;;;;;;;12.30;8.18;;;20.90;99.90;;;19.96;71.11;101271.72;5022567;28;20065;-70
2021/06/18 00:14:11;;;;;;;12.23;8.50;;;20.80;99.90;;;19.77;72.15;101268.78;5022232;28;20546;-70
2021/06/18 00:16:37;;;;;;;11.85;7.72;;;20.70;99.90;;;19.78;71.74;101267.78;5004459;28;20460;-70
2021/06/18 00:19:03;;;;;;;12.98;7.63;;;20.70;99.90;;;19.83;71.28;101260.28;5021394;28;20377;-69
2021/06/18 00:21:29;;;;;;;20.10;7.63;;;20.70;99.90;;;19.84;71.08;101262.81;5013595;28;20037;-70
2021/06/18 00:23:55;;;;;;;12.77;7.72;;;20.60;99.90;;;19.75;71.60;101262.69;5029300;28;20014;-70
2021/06/18 00:26:21;;;;;;;13.75;8.40;;;20.60;99.90;;;19.64;72.70;101253.66;5020927;28;20083;-70
2021/06/18 00:28:47;;;;;;;12.63;8.68;;;20.50;99.90;;;19.45;73.48;101253.34;5019987;28;20029;-70
2021/06/18 00:31:13;;;;;;;10.25;7.82;;;20.40;99.90;;;19.48;73.13;101263.78;5019507;28;20032;-70
2021/06/18 00:33:39;;;;;;;11.75;7.60;;;20.40;99.90;;;19.59;71.99;101258.50;5022746;28;20448;-70
2021/06/18 00:36:05;;;;;;;12.85;8.30;;;20.40;99.90;;;19.55;72.38;101257.03;5037282;28;20029;-70
2021/06/18 00:38:31;;;;;;;11.30;7.78;;;20.50;99.90;;;19.65;71.91;101246.47;5037501;28;20128;-70
2021/06/18 00:40:57;;;;;;;14.93;8.15;;;20.50;99.90;;;19.72;71.55;101249.56;5014183;28;20049;-70
2021/06/18 00:43:23;;;;;;;15.00;8.90;;;20.50;99.90;;;19.66;71.40;101248.19;5020836;28;20048;-70
2021/06/18 00:45:49;;;;;;;13.55;8.38;;;20.50;99.90;;;19.61;71.91;101242.34;5022446;28;20029;-70
2021/06/18 00:48:20;;;;;;;11.82;8.32;;;20.40;99.90;;;19.51;72.40;101252.03;5021671;28;20036;-70
2021/06/18 00:50:47;;;;;;;10.82;7.78;;;20.50;99.90;;;19.64;71.76;101250.13;5011722;28;20038;-70
2021/06/18 00:53:13;;;;;;;13.90;8.77;;;20.50;99.90;;;19.75;71.14;101247.50;5021113;28;20525;-70
2021/06/18 00:55:39;;;;;;;14.98;8.15;;;20.60;99.90;;;19.80;71.00;101247.16;5021869;28;20388;-70
2021/06/18 00:58:08;;;;;;;10.65;7.50;;;20.60;99.90;;;19.73;71.29;101246.78;5020481;28;20033;-70
2021/06/18 01:00:34;;;;;;;11.07;7.78;;;20.60;99.90;;;19.79;70.94;101245.47;5023816;28;20029;-70
2021/06/18 01:03:00;;;;;;;11.63;8.07;;;20.60;99.90;;;19.73;71.25;101240.59;5016311;28;20033;-70
2021/06/18 01:05:27;;;;;;;15.00;8.70;;;20.60;99.90;;;19.80;70.90;101248.00;5035587;28;20493;-69
2021/06/18 01:08:20;;;;;;;12.52;7.90;;;20.60;99.90;;;19.70;71.45;101243.47;5018356;28;20109;-69
2021/06/18 01:10:55;;;;;;;11.95;7.82;;;20.50;99.90;;;19.65;71.66;101243.81;5003693;28;20046;-69
2021/06/18 01:14:05;;;;;;;13.88;8.63;;;20.50;99.90;;;19.59;72.03;101241.59;5001304;28;20033;-70
2021/06/18 01:16:58;;;;;;;12.13;8.20;;;20.40;99.90;;;19.48;72.83;101242.41;5001962;28;20040;-70
2021/06/18 01:19:42;;;;;;;11.70;8.20;;;20.40;99.90;;;19.40;73.13;101244.84;5000279;28;20021;-70
2021/06/18 01:22:15;;;;;;;12.77;7.93;;;20.40;99.90;;;19.44;72.76;101251.66;5000486;28;20083;-70
2021/06/18 01:25:13;;;;;;;12.00;8.30;;;20.40;99.90;;;19.42;73.04;101246.44;5012835;28;20029;-70
2021/06/18 01:27:49;;;;;;;;;;;20.30;99.90;;;19.39;73.26;101248.47;5000514;28;20029;-70
2021/06/18 01:30:19;;;;;;;12.93;8.63;;;20.20;99.90;;;19.33;73.39;101249.78;5019858;28;20313;-69
2021/06/18 01:33:14;;;;;;;13.80;8.52;;;20.10;99.90;;;19.26;73.90;101248.53;5019569;28;20276;-70
2021/06/18 01:35:48;;;;;;;12.25;8.57;;;20.10;99.90;;;19.14;74.53;101238.78;5016021;28;20056;-69
2021/06/18 01:38:17;;;;;;;14.35;8.77;;;20.10;99.90;;;19.22;73.89;101244.38;5035433;28;20033;-70
2021/06/18 01:40:45;;;;;;;12.35;9.13;;;20.10;99.90;;;19.18;74.36;101242.91;5022243;28;20021;-70
2021/06/18 01:43:13;;;;;;;14.32;9.05;;;19.90;99.90;;;19.01;75.04;101241.53;5017835;28;20033;-70
2021/06/18 01:45:44;;;;;;;13.23;9.48;;;19.80;99.90;;;18.77;76.88;101245.00;5022556;28;20080;-70
2021/06/18 01:48:12;;;;;;;12.73;8.93;;;19.80;99.90;;;18.85;75.77;101241.78;5019334;28;20028;-70
2021/06/18 01:50:40;;;;;;;14.10;9.88;;;19.80;99.90;;;18.90;75.94;101236.09;4985808;28;20080;-70
2021/06/18 01:53:15;;;;;;;12.45;9.38;;;19.70;99.90;;;18.82;76.47;101239.34;5017758;28;20021;-70
2021/06/18 01:55:43;;;;;;;12.63;8.87;;;19.70;99.90;;;18.73;76.51;101235.50;5022386;28;20032;-70
2021/06/18 01:58:12;;;;;;;13.43;8.73;;;19.70;99.90;;;18.68;77.28;101239.47;5020140;28;20476;-70
2021/06/18 02:00:44;;;;;;;14.77;9.30;;;19.60;99.90;;;18.60;77.28;101238.22;5011772;28;20086;-70
2021/06/18 02:03:19;;;;;;;15.07;9.25;;;19.50;99.90;;;18.54;77.77;101238.66;5018509;28;20412;-70
2021/06/18 02:05:46;;;;;;;12.77;9.43;;;19.40;99.90;;;18.51;77.96;101233.53;5017700;28;21244;-70
2021/06/18 02:08:14;;;;;;;17.85;9.20;;;19.40;99.90;;;18.41;78.67;101230.69;5020870;28;20029;-70
2021/06/18 02:10:44;;;;;;;12.52;8.85;;;19.30;99.90;;;18.31;78.93;101226.09;5020073;28;20040;-70
2021/06/18 02:13:13;;;;;;;14.30;9.48;;;19.20;99.90;;;18.30;78.87;101227.09;5018494;28;20377;-70
2021/06/18 02:15:41;;;;;;;16.05;9.45;;;19.30;99.90;;;18.26;79.46;101229.09;5012964;28;20040;-70
2021/06/18 02:18:11;;;;;;;14.43;9.43;;;19.20;99.90;;;18.23;79.28;101226.69;5017846;28;20034;-70
2021/06/18 02:20:39;;;;;;;12.90;9.23;;;19.20;99.90;;;18.24;79.05;101228.38;5004647;28;20041;-70
2021/06/18 02:23:08;;;;;;;17.50;9.75;;;19.30;99.90;;;18.30;78.77;101227.94;5018321;28;20037;-70
2021/06/18 02:25:36;;;;;;;14.63;9.60;;;19.20;99.90;;;18.18;79.81;101228.78;4995386;28;20485;-70
2021/06/18 02:28:03;;;;;;;18.42;10.07;;;19.10;99.90;;;18.13;79.70;101229.13;5031871;28;20124;-69
2021/06/18 02:30:29;;;;;;;15.43;9.80;;;19.10;99.90;;;18.03;80.18;101225.38;5029929;28;20053;-70
2021/06/18 02:32:59;;;;;;;13.70;9.80;;;19.00;99.90;;;17.96;80.92;101234.78;5018543;28;20041;-70
2021/06/18 02:35:26;;;;;;;14.73;9.73;;;18.90;99.90;;;17.90;80.89;101225.38;5007721;28;20029;-70
2021/06/18 02:37:53;;;;;;;16.45;9.77;;;18.90;99.90;;;17.83;81.35;101234.78;5021385;28;20025;-70
2021/06/18 02:40:19;;;;;;;15.82;9.80;;;18.90;99.90;;;17.81;81.54;101236.66;5018178;28;20144;-70
2021/06/18 02:42:46;;;;;;;15.75;10.93;;;18.80;99.90;;;17.77;81.84;101230.69;5002239;28;20473;-70
2021/06/18 02:45:12;;;;;;;18.90;10.40;;;18.80;99.90;;;17.81;81.38;101226.00;5019785;28;20531;-69
2021/06/18 02:48:22;;;;;;;16.08;10.38;;;18.80;99.90;;;17.82;81.44;101228.59;5020627;28;20030;-70
2021/06/18 02:51:05;;;;;;;15.88;10.57;;;18.80;99.90;;;17.86;81.02;101233.72;5020051;28;20045;-70
2021/06/18 02:54:07;;;;;;;17.90;10.73;;;18.80;99.90;;;17.78;81.32;101235.06;5019003;28;20033;-70
2021/06/18 02:56:51;;;;;;;15.68;9.75;;;18.80;99.90;;;17.72;81.77;101227.50;5016081;28;20018;-70
2021/06/18 03:00:03;;;;;;;13.43;9.68;;;18.70;99.90;;;17.63;82.13;101234.31;5020254;28;20063;-70
2021/06/18 03:02:34;;;;;;;17.17;10.60;;;18.60;99.90;;;17.48;83.04;101223.84;5017928;28;20442;-70
2021/06/18 03:05:05;;;;;;;16.85;10.20;;;18.50;99.90;;;17.40;83.99;101235.00;5020276;28;20088;-70
2021/06/18 03:07:35;;;;;;;16.60;11.18;;;18.50;99.90;;;17.46;83.46;101231.09;5016979;28;20044;-69
2021/06/18 03:10:09;;;;;;;15.82;11.10;;;18.50;99.90;;;17.48;83.42;101224.69;5011753;28;20041;-70
2021/06/18 03:12:43;;;;;;;16.40;10.65;;;18.60;99.90;;;17.60;82.74;101225.66;5019488;28;20501;-70
2021/06/18 03:15:11;;;;;;;18.77;10.60;;;18.70;99.90;;;17.71;82.08;101228.47;5009057;28;20045;-70
2021/06/18 03:17:41;;;;;;;14.98;10.85;;;18.80;99.90;;;17.87;81.46;101230.94;5017608;28;20431;-70
2021/06/18 03:20:18;;;;;;;16.40;11.25;;;18.90;99.90;;;17.93;81.16;101237.66;5015959;28;20033;-70
2021/06/18 03:22:50;;;;;;;17.73;10.95;;;19.00;99.90;;;17.95;81.49;101233.94;5034701;28;20045;-70
2021/06/18 03:25:17;;;;;;;17.60;11.10;;;19.00;99.90;;;17.97;81.42;101233.81;5020339;28;20414;-70
2021/06/18 03:27:44;;;;;;;16.67;10.95;;;19.00;99.90;;;18.19;80.01;101228.69;5017383;28;20105;-70
2021/06/18 03:30:11;;;;;;;17.15;11.38;;;19.20;99.90;;;18.20;80.61;101227.72;5022441;28;20029;-70
2021/06/18 03:32:39;;;;;;;20.20;11.07;;;19.20;99.90;;;18.24;80.32;101236.34;5022033;28;20091;-70
2021/06/18 03:35:07;;;;;;;16.92;10.90;;;19.20;99.90;;;18.21;80.57;101240.09;5022375;28;20041;-70
2021/06/18 03:37:34;;;;;;;22.88;11.70;;;19.20;99.90;;;18.26;80.51;101242.44;5023775;28;20148;-70
2021/06/18 03:40:00;;;;;;;21.23;11.15;;;19.30;99.90;;;18.42;80.38;101248.41;5023260;28;20049;-70
2021/06/18 03:42:29;;;;;;;16.23;10.98;;;19.90;99.90;;;19.03;78.05;101245.78;5020206;28;20488;-70
2021/06/18 03:44:55;;;;;;;19.23;10.57;;;20.60;99.90;;;19.63;75.44;101237.72;5022123;28;20033;-69
2021/06/18 03:47:23;;;;;;;18.25;10.27;;;21.40;99.90;;;20.15;72.95;101239.06;5023068;28;20113;-70
2021/06/18 03:49:50;;;;;;;15.30;10.50;;;21.90;99.90;;;20.67;71.02;101242.94;5023906;28;20063;-70
2021/06/18 03:52:17;;;;;;;13.60;9.95;;;22.50;99.90;;;21.05;69.25;101244.28;5023449;28;20022;-70
2021/06/18 03:54:43;;;;;;;13.73;9.10;;;22.90;99.90;;;21.54;67.37;101239.38;5022785;28;20484;-70
2021/06/18 03:57:12;;;;;;;12.18;9.25;;;23.30;99.90;;;21.97;65.82;101237.53;5005818;28;20380;-70
2021/06/18 03:59:41;;;;;;;14.40;9.55;;;23.40;99.90;;;21.77;66.37;101247.25;5029388;28;20117;-70
2021/06/18 04:02:12;;;;;;;15.45;10.38;;;23.20;99.90;;;21.66;67.02;101242.81;5010610;28;20041;-70
2021/06/18 04:04:39;;;;;;;15.10;9.55;;;23.50;99.90;;;22.00;65.89;101242.59;5019315;28;20547;-70
2021/06/18 04:07:07;;;;;;;13.93;9.23;;;23.30;99.90;;;21.86;66.86;101246.50;5022808;28;20066;-70
2021/06/18 04:09:36;;;;;;;11.98;8.98;;;23.80;99.90;;;22.86;62.90;101243.06;5020645;28;20037;-70
2021/06/18 04:12:05;;;;;;;16.90;9.50;;;23.70;99.90;;;22.34;65.21;101237.00;5022516;28;20074;-70
2021/06/18 04:14:33;;;;;;;13.27;9.70;;;24.10;99.90;;;23.10;62.46;101232.81;5021548;28;20041;-70
2021/06/18 04:16:59;;;;;;;15.50;9.13;;;24.10;99.90;;;22.72;63.57;101237.13;4975705;28;20041;-70
2021/06/18 04:19:26;;;;;;;13.18;9.00;;;24.80;99.90;;;23.79;60.24;101236.31;4983342;28;20124;-70
2021/06/18 04:21:53;;;;;;;12.45;8.80;;;25.30;99.90;;;23.97;59.48;101240.94;4981274;28;20029;-70
2021/06/18 04:24:19;;;;;;;11.40;9.07;;;25.00;99.90;;;23.67;60.96;101232.91;4998071;28;20022;-70
2021/06/18 04:26:45;;;;;;;13.68;8.50;;;25.20;99.90;;;23.96;59.97;101234.72;4999270;28;20494;-70
2021/06/18 04:29:12;;;;;;;12.20;8.90;;;25.00;99.90;;;24.16;58.99;101241.69;4986100;28;20029;-70
2021/06/18 04:31:38;;;;;;;12.18;8.75;;;25.40;99.90;;;24.63;56.81;101242.66;5001313;28;20034;-70
2021/06/18 04:34:06;;;;;;;10.55;9.20;;;25.90;99.90;;;24.81;57.03;101240.00;5002788;28;20042;-70
2021/06/18 04:36:36;;;;;;;13.05;9.00;;;26.20;99.90;;;25.22;55.30;101237.72;5001288;28;20025;-70
2021/06/18 04:39:05;;;;;;;12.70;8.88;;;26.30;99.90;;;25.44;53.92;101241.78;5001162;28;20038;-70
2021/06/18 04:41:31;;;;;;;13.50;9.48;;;26.00;99.90;;;24.43;56.87;101258.00;5021614;28;20423;-70
2021/06/18 04:43:57;;;;;;;14.55;9.68;;;25.80;99.90;;;24.79;55.98;101258.97;5022132;28;20032;-71
2021/06/18 04:46:24;;;;;;;13.98;8.93;;;25.90;99.90;;;25.13;54.50;101263.72;5020565;28;20029;-70
2021/06/18 04:48:50;;;;;;;12.77;8.55;;;26.10;99.90;;;25.22;54.46;101259.28;5028531;28;20101;-70
2021/06/18 04:51:18;;;;;;;15.27;9.55;;;26.30;99.90;;;25.14;54.84;101260.00;5020100;28;20080;-70
2021/06/18 04:53:46;;;;;;;12.23;8.50;;;26.40;99.90;;;25.83;53.15;101247.66;5005009;28;20126;-70
2021/06/18 04:56:13;;;;;;;12.90;9.38;;;27.00;99.90;;;26.13;52.26;101251.75;5036383;28;20021;-70
2021/06/18 04:58:39;;;;;;;15.57;8.95;;;26.60;99.90;;;25.63;53.64;101251.53;5023331;28;20043;-70
2021/06/18 05:01:07;;;;;;;13.25;8.90;;;26.80;99.90;;;26.18;51.82;101254.78;5010180;28;20037;-70
2021/06/18 05:03:32;;;;;;;15.15;8.90;;;26.80;99.90;;;26.23;51.93;101254.31;5021558;28;20120;-70
2021/06/18 05:05:58;;;;;;;14.88;9.30;;;27.50;99.90;;;27.05;49.29;101249.19;5021566;28;20034;-70
2021/06/18 05:08:24;;;;;;;12.30;8.63;;;27.90;99.90;;;27.50;47.78;101247.91;5012526;28;20029;-70
2021/06/18 05:10:51;;;;;;;18.40;8.60;;;28.10;99.90;;;27.20;48.47;101247.50;5022142;28;20044;-70
2021/06/18 05:13:17;;;;;;;21.65;10.13;;;27.70;99.90;;;26.39;50.24;101250.81;5023441;28;20033;-70
2021/06/18 05:15:43;;;;;;;11.20;8.98;;;27.90;99.80;;;26.74;49.39;101248.97;5018764;28;20120;-70
2021/06/18 05:18:09;;;;;;;15.73;9.63;;;27.70;99.90;;;26.91;49.02;101256.09;5022306;28;20032;-71
2021/06/18 05:20:35;;;;;;;11.85;8.77;;;27.90;99.80;;;27.14;48.09;101253.59;5022311;28;20440;-70
2021/06/18 05:23:01;;;;;;;12.43;8.38;;;27.80;99.90;;;26.99;49.37;101250.69;5020796;28;20030;-71
2021/06/18 05:25:26;;;;;;;13.10;9.00;;;27.90;99.30;;;26.37;50.61;101242.91;5018068;28;20087;-71
2021/06/18 05:27:52;;;;;;;12.13;9.48;;;28.00;99.10;;;27.30;49.33;101246.53;5020756;28;20021;-71
2021/06/18 05:30:20;;;;;;;19.20;9.32;;;27.90;98.70;;;26.62;50.54;101251.13;5021158;28;21187;-71
2021/06/18 05:32:47;;;;;;;15.82;9.40;;;28.70;98.50;;;28.17;46.20;101250.34;5022741;28;20037;-71
2021/06/18 05:35:14;;;;;;;16.33;8.90;;;28.70;97.80;;;27.65;47.47;101245.34;5009382;28;20519;-71
2021/06/18 05:37:40;;;;;;;16.05;8.60;;;28.70;98.10;;;28.24;46.41;101247.78;5019887;28;20025;-70
2021/06/18 05:40:08;;;;;;;13.52;8.27;;;28.40;97.70;;;27.32;48.34;101256.19;5010077;28;20439;-70
2021/06/18 05:42:36;;;;;;;12.65;9.05;;;28.20;98.40;;;27.83;47.29;101259.50;5019011;28;20086;-70
2021/06/18 05:45:06;;;;;;;11.38;8.65;;;28.10;98.20;;;27.53;47.62;101258.38;5014419;28;20028;-70
2021/06/18 05:47:32;;;;;;;11.05;8.80;;;28.90;97.90;;;28.19;46.00;101258.28;5016508;28;20032;-70
2021/06/18 05:49:58;;;;;;;12.55;8.40;;;28.50;97.30;;;27.26;48.63;101266.81;5017186;28;20049;-70
2021/06/18 05:52:24;;;;;;;14.02;8.27;;;29.10;97.00;;;28.29;46.03;101266.19;5013089;28;20025;-70
2021/06/18 05:54:50;;;;;;;12.27;9.10;;;29.50;95.90;;;28.82;44.46;101270.06;5018152;28;20511;-70
2021/06/18 05:57:16;;;;;;;13.70;8.73;;;29.50;96.00;;;28.85;44.22;101266.97;5021568;28;20026;-70
2021/06/18 05:59:42;;;;;;;10.27;8.13;;;29.10;95.80;;;28.37;45.08;101271.59;5020471;28;20454;-70
2021/06/18 06:02:08;;;;;;;11.50;8.77;;;29.00;96.10;;;28.43;45.57;101274.44;5020599;28;20046;-70
2021/06/18 06:04:34;;;;;;;18.15;8.93;;;29.20;96.00;;;28.31;45.71;101273.13;5018005;28;20370;-70
2021/06/18 06:07:00;;;;;;;12.85;8.65;;;29.10;96.50;;;28.58;46.01;101274.56;5016715;28;20027;-71
2021/06/18 06:09:26;;;;;;;12.98;8.70;;;28.90;97.40;;;28.94;45.43;101267.75;5035201;28;20112;-70
2021/06/18 06:11:52;;;;;;;14.43;8.73;;;30.00;96.10;;;29.36;44.63;101269.22;5018657;28;21113;-70
2021/06/18 06:14:19;;;;;;;12.07;8.70;;;30.10;95.10;;;28.78;46.18;101276.84;5020910;28;20051;-70
2021/06/18 06:16:46;;;;;;;10.27;7.90;;;30.10;95.90;;;29.50;43.28;101271.09;5019755;28;20026;-70
2021/06/18 06:19:13;;;;;;;11.77;8.65;;;29.40;94.70;;;28.14;45.79;101268.78;5011550;28;20021;-70
2021/06/18 06:21:43;;;;;;;13.25;9.00;;;29.00;95.60;;;28.27;45.96;101270.94;5002509;28;20018;-70
2021/06/18 06:24:12;;;;;;;12.23;8.77;;;29.20;95.70;;;28.91;44.46;101268.13;5010637;28;20034;-70
2021/06/18 06:26:40;;;;;;;12.10;7.93;;;29.90;95.50;;;29.53;43.93;101261.78;5018998;28;20556;-71
2021/06/18 06:29:06;;;;;;;11.82;8.63;;;30.70;94.60;;;30.60;41.85;101264.19;5021491;28;20033;-70
2021/06/18 06:31:32;;;;;;;11.85;8.35;;;31.60;93.30;;;31.24;39.78;101264.28;5019213;28;20572;-70
2021/06/18 06:33:58;;;;;;;10.80;8.45;;;31.80;92.50;;;31.34;39.51;101255.81;5019369;28;20148;-70
2021/06/18 06:36:24;;;;;;;8.80;7.90;;;31.90;92.30;;;30.76;41.00;101263.97;4996432;28;20032;-71
2021/06/18 06:38:51;;;;;;;15.82;8.02;;;30.80;92.70;;;29.19;44.14;101266.59;5016009;28;20673;-70
2021/06/18 06:41:17;;;;;;;10.57;8.45;;;30.50;94.20;;;29.52;44.65;101260.06;5014542;28;20041;-71
2021/06/18 06:43:44;;;;;;;9.98;8.02;;;31.40;92.50;;;31.16;40.09;101258.97;5016648;28;20017;-71
2021/06/18 06:46:10;;;;;;;10.43;7.88;;;31.80;91.50;;;31.24;38.58;101267.00;5006912;28;20036;-70
2021/06/18 06:48:36;;;;;;;14.90;8.05;;;31.00;92.00;;;30.49;40.38;101264.69;5010366;28;20033;-70
2021/06/18 06:51:02;;;;;;;9.63;7.18;;;31.00;92.00;;;30.18;41.86;101263.84;5025390;28;20103;-70
2021/06/18 06:53:28;;;;;;;10.60;7.30;;;30.70;92.30;;;30.60;40.33;101259.59;5019292;28;20040;-71
2021/06/18 06:55:54;;;;;;;12.52;7.65;;;31.00;91.60;;;29.61;42.33;101264.41;5016143;28;20028;-70
2021/06/18 06:58:20;;;;;;;10.35;8.15;;;31.10;92.20;;;31.03;40.31;101264.28;5008252;28;20029;-70
2021/06/18 07:00:46;;;;;;;10.63;7.85;;;30.90;91.70;;;29.33;43.15;101269.56;5020808;28;20186;-71
2021/06/18 07:03:12;;;;;;;14.23;7.30;;;30.10;92.50;;;29.64;43.35;101256.75;5032303;28;20025;-70
2021/06/18 07:05:38;;;;;;;11.45;7.72;;;30.30;91.70;;;30.18;40.24;101263.00;5022249;28;20030;-70
2021/06/18 07:08:20;;;;;;;8.98;7.13;;;30.50;92.50;;;30.55;40.81;101263.94;5012017;28;20036;-70
2021/06/18 07:10:48;;;;;;;13.57;7.45;;;31.00;92.40;;;31.17;39.66;101268.00;5019947;28;20036;-71
2021/06/18 07:13:14;;;;;;;14.25;7.10;;;32.20;91.10;;;32.63;37.03;101260.03;5016463;28;20511;-70
2021/06/18 07:15:40;;;;;;;10.18;7.10;;;32.90;89.50;;;33.19;35.40;101264.41;5016916;28;20034;-71
2021/06/18 07:18:08;;;;;;;11.23;7.60;;;32.90;87.80;;;32.56;35.84;101270.91;5015750;28;20096;-70
2021/06/18 07:20:34;;;;;;;8.18;7.13;;;32.70;88.70;;;31.51;38.58;101263.72;5017217;28;20033;-70
2021/06/18 07:23:00;;;;;;;9.40;7.70;;;31.50;90.20;;;29.76;41.97;101259.91;5020047;28;20021;-70
2021/06/18 07:25:26;;;;;;;9.30;6.65;;;30.90;92.20;;;31.03;41.10;101267.00;5018917;28;20037;-70
2021/06/18 07:27:52;;;;;;;10.05;7.07;;;31.50;91.00;;;31.77;38.50;101258.50;5016526;28;20037;-71
2021/06/18 07:30:19;;;;;;;11.20;7.75;;;31.60;91.30;;;31.87;39.33;101256.25;5022109;28;20033;-70
2021/06/18 07:32:45;;;;;;;12.88;7.40;;;31.00;91.40;;;30.39;42.04;101259.53;5021606;28;20055;-70
2021/06/18 07:35:11;;;;;;;13.00;7.10;;;31.20;91.40;;;31.50;39.45;101252.00;5016510;28;20489;-70
2021/06/18 07:37:37;;;;;;;11.05;6.68;;;31.90;90.60;;;32.74;37.46;101264.91;5017837;28;20513;-70
2021/06/18 07:40:05;;;;;;;10.32;7.22;;;32.60;91.00;;;32.78;38.16;101265.34;5018835;28;20136;-70
2021/06/18 07:42:31;;;;;;;9.95;6.95;;;32.80;88.60;;;32.64;37.00;101262.56;5019182;28;20057;-71
2021/06/18 07:44:57;;;;;;;11.75;7.50;;;32.40;89.10;;;31.85;38.01;101263.75;5035548;28;20104;-71
2021/06/18 07:47:23;;;;;;;10.63;7.30;;;32.30;90.40;;;32.42;38.07;101264.56;5021663;28;20100;-71
2021/06/18 07:49:50;;;;;;;11.82;6.25;;;32.00;90.40;;;32.33;38.58;101260.28;5035154;28;20485;-70
2021/06/18 07:52:16;;;;;;;8.85;6.78;;;32.20;91.00;;;31.64;39.61;101256.53;5017502;28;20041;-71
2021/06/18 07:54:42;;;;;;;10.02;6.95;;;31.50;90.80;;;31.06;39.56;101251.16;5017916;28;20026;-71
2021/06/18 07:57:08;;;;;;;10.10;6.75;;;31.60;90.70;;;31.64;39.20;101250.22;5015540;28;20029;-71
2021/06/18 07:59:35;;;;;;;10.77;7.20;;;30.80;91.80;;;29.78;43.00;101259.69;5016964;28;20025;-71
2021/06/18 08:02:01;;;;;;;9.32;6.97;;;30.30;92.40;;;29.78;44.09;101252.38;5019611;28;20040;-71
2021/06/18 08:04:26;;;;;;;7.30;6.40;;;30.50;92.00;;;30.22;42.33;101250.75;5012437;28;20034;-71
2021/06/18 08:06:52;;;;;;;10.65;5.93;;;30.90;91.10;;;30.95;40.53;101251.69;5017994;28;20025;-71
2021/06/18 08:09:18;;;;;;;7.78;6.32;;;31.00;91.00;;;30.95;39.88;101251.69;5017604;28;20370;-70
2021/06/18 08:11:44;;;;;;;7.47;6.18;;;31.70;91.20;;;31.71;40.04;101250.25;5019155;28;20044;-71
2021/06/18 08:14:10;;;;;;;7.88;6.20;;;31.60;90.80;;;31.34;40.17;101249.50;5019385;28;20033;-71
2021/06/18 08:16:36;;;;;;;8.43;6.40;;;32.00;90.10;;;31.13;40.06;101244.94;5021296;28;22978;-71
2021/06/18 08:19:02;;;;;;;13.35;6.28;;;31.50;90.80;;;30.88;40.88;101241.75;5022167;28;20481;-71
2021/06/18 08:21:28;;;;;;;8.45;6.60;;;31.30;91.20;;;31.03;41.88;101242.53;5024630;28;20025;-71
2021/06/18 08:23:54;;;;;;;10.60;6.30;;;31.80;90.40;;;30.92;41.29;101241.16;5037052;28;20021;-71
2021/06/18 08:26:20;;;;;;;7.93;6.30;;;31.90;90.00;;;31.64;39.26;101237.47;5024726;28;20033;-71
2021/06/18 08:28:46;;;;;;;11.15;6.47;;;32.00;90.20;;;31.61;39.71;101246.00;5004474;28;20057;-71
2021/06/18 08:31:12;;;;;;;9.13;6.30;;;31.70;90.40;;;31.10;40.61;101240.72;5028469;28;20122;-70
2021/06/18 08:33:38;;;;;;;6.32;5.57;;;31.70;90.10;;;31.32;39.61;101232.53;5018674;28;20177;-71
2021/06/18 08:36:06;;;;;;;8.48;6.45;;;31.40;90.30;;;30.94;40.73;101238.28;5014138;28;20489;-71
2021/06/18 08:38:36;;;;;;;11.68;6.80;;;32.00;90.50;;;31.40;40.09;101226.97;5036049;28;20048;-71
2021/06/18 08:41:04;;;;;;;14.82;6.28;;;32.40;90.50;;;32.28;39.62;101239.13;5020658;28;20029;-71
2021/06/18 08:43:31;;;;;;;7.95;6.00;;;32.60;89.80;;;31.71;39.14;101231.19;5022804;28;20397;-71
2021/06/18 08:46:02;;;;;;;8.40;5.68;;;32.10;89.30;;;30.85;40.10;101227.47;5021042;28;20033;-71
2021/06/18 08:48:30;;;;;;;10.32;6.38;;;31.80;90.50;;;31.19;40.60;101230.53;5004321;28;20049;-71
2021/06/18 08:50:58;;;;;;;6.80;5.82;;;32.10;90.90;;;31.96;39.94;101232.41;4998929;28;20095;-71
2021/06/18 08:53:26;;;;;;;10.73;5.78;;;32.10;90.20;;;31.72;40.31;101232.91;5001419;28;20043;-71
2021/06/18 08:55:54;;;;;;;7.75;5.18;;;32.80;86.20;;;32.29;37.30;101231.81;4999723;28;20522;-71
2021/06/18 08:58:22;;;;;;;10.95;4.78;;;32.60;87.30;;;32.11;38.07;101231.50;5003770;28;20120;-71
2021/06/18 09:00:52;;;;;;;8.57;5.35;;;33.00;85.70;;;32.37;36.93;101228.88;5010661;28;20053;-71
2021/06/18 09:03:48;;;;;;;7.65;4.65;;;33.00;86.60;;;32.54;38.00;101220.38;4966917;28;20563;-71
2021/06/18 09:06:42;;;;;;;7.22;4.85;;;33.20;87.60;;;32.90;37.23;101222.78;4981743;28;20040;-71
2021/06/18 09:09:21;;;;;;;7.22;4.80;;;33.60;83.70;;;33.07;34.80;101226.84;4979408;28;20045;-71
2021/06/18 09:11:58;;;;;;;8.70;5.07;;;33.30;83.40;;;32.72;35.08;101219.81;4984005;28;20107;-71
2021/06/18 09:14:48;;;;;;;9.90;5.55;;;32.70;86.50;;;32.60;38.03;101217.69;4986215;28;20112;-71
2021/06/18 09:17:18;;;;;;;6.25;5.07;;;33.00;84.10;;;32.40;36.23;101217.59;5014490;28;20042;-71
2021/06/18 09:20:10;;;;;;;9.32;5.13;;;32.80;85.40;;;32.62;36.42;101217.47;5003075;28;20141;-71
2021/06/18 09:22:48;;;;;;;11.57;4.50;;;33.00;85.10;;;33.01;37.17;101214.00;4987985;28;20059;-71
2021/06/18 09:25:17;;;;;;;8.57;3.85;;;33.50;82.70;;;33.68;33.09;101208.56;4974338;28;20119;-71
2021/06/18 09:28:08;;;;;;;5.97;3.40;;;34.00;80.90;;;33.82;30.76;101212.09;4991978;28;20489;-71
2021/06/18 09:31:17;;;;;;;5.32;3.55;;;34.30;76.50;;;34.13;29.94;101208.69;4981734;28;20117;-72
2021/06/18 09:34:18;;;;;;;6.05;3.10;;;34.90;75.10;;;34.47;28.29;101202.03;4956099;28;20034;-71
2021/06/18 09:37:24;;;;;;;6.03;3.50;;;34.90;71.50;;;35.03;26.32;101210.53;4963166;28;20406;-71
2021/06/18 09:40:29;;;;;;;4.18;2.83;;;35.30;67.80;;;34.99;25.92;101201.94;4967951;28;20065;-72
2021/06/18 09:43:21;;;;;;;3.45;2.78;;;35.10;70.00;;;34.85;27.76;101200.34;4960624;28;20096;-72
2021/06/18 09:46:08;;;;;;;8.13;3.05;;;34.60;66.80;;;33.89;25.22;101191.09;4955132;28;20033;-71
2021/06/18 09:48:36;;;;;;;3.88;2.70;;;34.20;66.20;;;33.87;25.94;101190.47;4976883;28;20042;-71
2021/06/18 09:51:12;;;;;;;8.07;2.88;;;33.80;63.60;;;33.74;26.08;101187.75;4956252;28;20052;-71
2021/06/18 09:53:38;;;;;;;;;;;33.90;65.70;;;33.81;25.99;101185.88;5003169;28;20029;-71
2021/06/18 09:56:15;;;;;;;;;;;34.40;66.50;;;34.23;24.89;101184.47;4977737;28;20877;-71
2021/06/18 09:59:08;;;;;;;32.03;4.65;;;34.80;66.80;;;35.12;25.76;101188.16;4980925;28;20368;-72
2021/06/18 10:01:36;;;;;;;4.80;2.55;;;35.40;63.40;;;35.31;24.42;101190.94;5002534;28;20516;-72
2021/06/18 10:04:11;;;;;;;5.28;2.65;;;35.50;60.70;;;35.46;23.72;101183.22;4991890;28;20462;-71
2021/06/18 10:06:40;;;;;;;4.07;2.80;;;35.70;59.60;;;35.21;22.58;101190.63;4957745;28;20033;-71
2021/06/18 10:09:16;;;;;;;4.05;2.63;;;35.00;58.80;;;34.50;23.64;101187.06;4951265;28;20764;-71
2021/06/18 10:11:47;;;;;;;;;;;34.90;60.20;;;34.87;24.02;101185.38;4964221;28;20099;-71
2021/06/18 10:14:26;;;;;;;4.38;2.83;;;35.20;60.70;;;35.07;24.05;101179.75;4966992;28;19910;-72
2021/06/18 10:17:02;;;;;;;6.95;2.55;;;35.50;62.80;;;35.61;24.66;101174.66;4959805;28;20390;-71
2021/06/18 10:19:30;;;;;;;;;;;35.50;63.80;;;35.29;22.87;101182.97;4960761;28;20057;-71
2021/06/18 10:22:10;;;;;;;4.53;2.47;;;35.50;61.30;;;35.02;24.70;101176.03;4993390;28;19952;-71